Time;durP1;ratioP1;P1;durP2;ratioP2;P2;SDS_P1;SDS_P2;PMS_P1;PMS_P2;Temp;Humidity;BMP_temperature;BMP_pressure;BME280_temperature;BME280_humidity;BME280_pressure;Samples;Min_cycle;Max_cycle;Signal;HPM_P1;HPM_P2
2023/10/16 00:00:47;;;;;;;4.15;0.32;;;;;;;;;;5065658;28;20049;-67
2023/10/16 00:03:15;;;;;;;4.18;0.30;;;;;;;;;;5069691;28;20567;-67
2023/10/16 00:05:49;;;;;;;1.40;0.30;;;;;;;;;;5069837;28;20087;-68
2023/10/16 00:08:17;;;;;;;8.75;0.40;;;;;;;;;;5063407;28;20052;-67
2023/10/16 00:10:55;;;;;;;4.85;0.20;;;;;;;;;;5068159;28;20079;-66
2023/10/16 00:13:26;;;;;;;6.57;0.38;;;;;;;;;;5063246;28;20057;-66
2023/10/16 00:15:55;;;;;;;2.45;0.22;;;;;;;;;;5070093;28;20057;-69
2023/10/16 00:18:23;;;;;;;5.00;0.60;;;;;;;;;;5065666;28;20052;-67
2023/10/16 00:20:52;;;;;;;7.47;0.30;;;;;;;;;;5069875;28;20044;-68
2023/10/16 00:23:24;;;;;;;5.10;0.30;;;;;;;;;;5068764;28;20056;-67
2023/10/16 00:25:52;;;;;;;8.35;0.32;;;;;;;;;;5065243;28;20064;-67
2023/10/16 00:28:21;;;;;;;3.72;0.40;;;;;;;;;;5068269;28;20044;-67
2023/10/16 00:30:49;;;;;;;4.68;0.30;;;;;;;;;;5066664;28;20067;-66
2023/10/16 00:33:16;;;;;;;4.40;0.55;;;;;;;;;;5059237;28;20084;-68
2023/10/16 00:35:45;;;;;;;6.57;0.60;;;;;;;;;;5063966;28;20056;-67
2023/10/16 00:38:14;;;;;;;6.25;0.40;;;;;;;;;;5068154;28;20094;-67
2023/10/16 00:40:51;;;;;;;4.57;0.30;;;;;;;;;;5070077;28;20048;-66
2023/10/16 00:43:20;;;;;;;3.92;0.40;;;;;;;;;;5068169;28;20041;-67
2023/10/16 00:45:49;;;;;;;8.93;0.52;;;;;;;;;;5067605;28;20036;-66
2023/10/16 00:48:18;;;;;;;0.82;0.10;;;;;;;;;;5066486;28;20063;-66
2023/10/16 00:50:48;;;;;;;5.55;0.35;;;;;;;;;;5065781;28;20625;-66
2023/10/16 00:53:20;;;;;;;10.73;0.30;;;;;;;;;;5068478;28;20446;-67
2023/10/16 00:55:48;;;;;;;6.50;0.40;;;;;;;;;;5055587;28;20049;-67
2023/10/16 00:58:15;;;;;;;14.98;0.50;;;;;;;;;;5066711;28;20048;-67
2023/10/16 01:00:47;;;;;;;6.38;0.50;;;;;;;;;;5068292;28;20048;-66
2023/10/16 01:03:15;;;;;;;9.15;0.40;;;;;;;;;;5061955;28;20050;-67
2023/10/16 01:05:43;;;;;;;8.68;0.55;;;;;;;;;;5066008;28;20086;-66
2023/10/16 01:08:10;;;;;;;5.55;1.13;;;;;;;;;;5066830;28;20045;-66
2023/10/16 01:10:40;;;;;;;2.80;0.35;;;;;;;;;;5065004;28;20056;-66
2023/10/16 01:13:12;;;;;;;4.38;0.32;;;;;;;;;;5059898;28;20079;-67
2023/10/16 01:15:46;;;;;;;2.88;0.40;;;;;;;;;;5056788;28;20052;-66
2023/10/16 01:18:15;;;;;;;9.50;0.50;;;;;;;;;;5064517;28;20048;-67
2023/10/16 01:20:47;;;;;;;2.55;0.38;;;;;;;;;;5063629;28;20049;-66
2023/10/16 01:23:18;;;;;;;2.78;0.50;;;;;;;;;;5059519;28;20400;-67
2023/10/16 01:25:48;;;;;;;1.65;0.38;;;;;;;;;;5065409;28;20091;-67
2023/10/16 01:28:16;;;;;;;3.88;0.30;;;;;;;;;;5068045;28;20373;-66
2023/10/16 01:30:45;;;;;;;4.13;0.35;;;;;;;;;;5069453;28;20048;-66
2023/10/16 01:33:12;;;;;;;2.00;0.32;;;;;;;;;;5059704;28;20080;-66
2023/10/16 01:35:40;;;;;;;1.98;0.20;;;;;;;;;;5058615;28;20102;-66
2023/10/16 01:38:16;;;;;;;8.45;0.40;;;;;;;;;;5061554;28;20059;-67
2023/10/16 01:41:02;;;;;;;3.40;0.40;;;;;;;;;;5068557;28;20044;-67
2023/10/16 01:43:29;;;;;;;1.95;0.30;;;;;;;;;;5068972;28;20055;-67
2023/10/16 01:45:58;;;;;;;5.43;0.30;;;;;;;;;;5067843;28;20082;-66
2023/10/16 01:48:28;;;;;;;2.75;0.30;;;;;;;;;;5066956;28;20040;-66
2023/10/16 01:50:55;;;;;;;1.08;0.40;;;;;;;;;;5058432;28;20076;-67
2023/10/16 01:53:25;;;;;;;2.85;0.55;;;;;;;;;;5058045;28;20491;-66
2023/10/16 01:55:54;;;;;;;5.05;0.60;;;;;;;;;;5067137;28;20084;-66
2023/10/16 01:58:22;;;;;;;3.83;0.30;;;;;;;;;;5068175;28;20048;-66
2023/10/16 02:00:50;;;;;;;3.65;0.35;;;;;;;;;;5069040;28;20052;-66
2023/10/16 02:03:18;;;;;;;5.07;0.30;;;;;;;;;;5059861;28;20395;-67
2023/10/16 02:05:46;;;;;;;3.30;0.30;;;;;;;;;;5066490;28;20579;-66
2023/10/16 02:08:14;;;;;;;5.38;0.63;;;;;;;;;;5065805;28;20120;-66
2023/10/16 02:10:42;;;;;;;0.98;0.35;;;;;;;;;;5062412;28;20064;-65
2023/10/16 02:13:12;;;;;;;3.58;0.40;;;;;;;;;;5060938;28;20091;-66
2023/10/16 02:15:39;;;;;;;6.13;0.38;;;;;;;;;;5068168;28;20048;-66
2023/10/16 02:18:07;;;;;;;4.63;0.50;;;;;;;;;;5066951;28;20075;-66
2023/10/16 02:20:38;;;;;;;1.27;0.30;;;;;;;;;;5066243;28;20052;-66
2023/10/16 02:23:07;;;;;;;4.50;0.30;;;;;;;;;;5059893;28;20044;-66
2023/10/16 02:25:35;;;;;;;4.47;0.40;;;;;;;;;;5067841;28;20492;-66
2023/10/16 02:28:07;;;;;;;1.38;0.20;;;;;;;;;;5065643;28;20060;-67
2023/10/16 02:30:38;;;;;;;1.05;0.30;;;;;;;;;;5067290;28;20484;-66
2023/10/16 02:33:14;;;;;;;7.68;0.40;;;;;;;;;;5066642;28;20124;-65
2023/10/16 02:35:42;;;;;;;4.80;0.50;;;;;;;;;;5069446;28;20055;-66
2023/10/16 02:38:14;;;;;;;8.65;0.77;;;;;;;;;;5064684;28;20131;-66
2023/10/16 02:40:43;;;;;;;1.55;0.38;;;;;;;;;;5072036;28;20418;-67
2023/10/16 02:43:18;;;;;;;4.88;0.50;;;;;;;;;;5068091;28;20067;-66
2023/10/16 02:45:51;;;;;;;9.05;0.70;;;;;;;;;;5068254;28;20119;-66
2023/10/16 02:48:19;;;;;;;12.68;0.50;;;;;;;;;;5070266;28;20381;-66
2023/10/16 02:50:49;;;;;;;5.60;0.40;;;;;;;;;;5066067;28;20060;-66
2023/10/16 02:53:21;;;;;;;2.78;0.30;;;;;;;;;;5069825;28;20056;-66
2023/10/16 02:55:52;;;;;;;7.57;0.47;;;;;;;;;;5069840;28;20407;-68
2023/10/16 02:58:22;;;;;;;8.25;0.50;;;;;;;;;;5071383;28;20076;-67
2023/10/16 03:00:53;;;;;;;3.65;0.50;;;;;;;;;;5068352;28;20047;-66
2023/10/16 03:03:21;;;;;;;8.65;0.60;;;;;;;;;;5071427;28;20136;-66
2023/10/16 03:05:49;;;;;;;2.65;0.20;;;;;;;;;;5070406;28;20431;-66
2023/10/16 03:08:19;;;;;;;2.78;0.30;;;;;;;;;;5066188;28;20060;-66
2023/10/16 03:10:46;;;;;;;6.00;0.38;;;;;;;;;;5061737;28;20183;-66
2023/10/16 03:13:15;;;;;;;7.72;0.32;;;;;;;;;;5056750;28;20060;-66
2023/10/16 03:15:46;;;;;;;7.32;0.63;;;;;;;;;;5067572;28;20048;-67
2023/10/16 03:18:22;;;;;;;4.07;0.30;;;;;;;;;;5058215;28;20140;-69
2023/10/16 03:20:50;;;;;;;5.82;0.95;;;;;;;;;;5064459;28;20052;-66
2023/10/16 03:23:18;;;;;;;4.15;0.30;;;;;;;;;;5069057;28;20057;-67
2023/10/16 03:25:52;;;;;;;2.20;0.25;;;;;;;;;;5062888;28;20040;-66
2023/10/16 03:28:19;;;;;;;1.02;0.30;;;;;;;;;;5067236;28;20041;-67
2023/10/16 03:30:47;;;;;;;4.47;0.25;;;;;;;;;;5071438;28;20123;-66
2023/10/16 03:33:16;;;;;;;2.38;0.35;;;;;;;;;;5066459;28;20052;-67
2023/10/16 03:35:47;;;;;;;2.83;0.30;;;;;;;;;;5066116;28;20041;-66
2023/10/16 03:38:24;;;;;;;4.80;0.22;;;;;;;;;;5067869;28;20052;-66
2023/10/16 03:40:52;;;;;;;7.35;0.45;;;;;;;;;;5068130;28;20495;-68
2023/10/16 03:43:22;;;;;;;6.07;0.45;;;;;;;;;;5065860;28;20074;-67
2023/10/16 03:45:50;;;;;;;7.20;0.28;;;;;;;;;;5067995;28;20079;-67
2023/10/16 03:48:19;;;;;;;3.10;0.35;;;;;;;;;;5068600;28;20040;-66
2023/10/16 03:50:47;;;;;;;3.10;0.32;;;;;;;;;;5061169;28;20140;-67
2023/10/16 03:53:14;;;;;;;2.40;0.45;;;;;;;;;;5060703;28;20080;-66
2023/10/16 03:55:43;;;;;;;4.57;0.55;;;;;;;;;;5066375;28;20127;-66
2023/10/16 03:58:12;;;;;;;4.80;0.82;;;;;;;;;;5068233;28;20395;-66
2023/10/16 04:03:22;;;;;;;2.60;0.40;;;;;;;;;;5066568;28;20056;-66
2023/10/16 04:05:50;;;;;;;5.18;0.40;;;;;;;;;;5067803;28;20048;-66
2023/10/16 04:08:18;;;;;;;4.90;0.55;;;;;;;;;;5066502;28;20085;-66
2023/10/16 04:10:47;;;;;;;3.97;0.43;;;;;;;;;;5069408;28;20036;-66
2023/10/16 04:13:15;;;;;;;2.70;0.30;;;;;;;;;;5063043;28;21182;-66
2023/10/16 04:16:09;;;;;;;1.27;0.30;;;;;;;;;;5068341;28;20052;-66
2023/10/16 04:18:39;;;;;;;6.75;0.50;;;;;;;;;;5067546;28;20045;-67
2023/10/16 04:23:54;;;;;;;1.88;0.30;;;;;;;;;;5048072;28;20078;-66
2023/10/16 04:26:56;;;;;;;5.63;0.45;;;;;;;;;;5065150;28;20380;-66
2023/10/16 04:29:28;;;;;;;2.10;0.30;;;;;;;;;;5063681;28;20055;-66
2023/10/16 04:31:57;;;;;;;1.77;0.20;;;;;;;;;;5069882;28;20051;-66
2023/10/16 04:34:32;;;;;;;1.55;0.20;;;;;;;;;;5066399;28;20051;-66
2023/10/16 04:45:28;;;;;;;2.33;0.30;;;;;;;;;;5065921;28;20060;-66
2023/10/16 04:48:07;;;;;;;2.65;0.70;;;;;;;;;;5065176;28;20460;-67
2023/10/16 04:50:40;;;;;;;2.67;0.20;;;;;;;;;;5066130;28;20044;-66
2023/10/16 04:53:09;;;;;;;;;;;;;;;;;;5068706;28;20549;-66
2023/10/16 04:55:53;;;;;;;4.55;0.40;;;;;;;;;;5066188;28;19923;-67
2023/10/16 04:58:39;;;;;;;2.78;0.10;;;;;;;;;;5067617;28;20067;-65
2023/10/16 05:04:49;;;;;;;6.68;0.73;;;;;;;;;;5053150;28;20132;-66
2023/10/16 05:07:17;;;;;;;6.13;0.50;;;;;;;;;;5068194;28;20077;-65
2023/10/16 05:16:27;;;;;;;3.90;0.35;;;;;;;;;;5002130;28;20440;-66
2023/10/16 05:18:48;;;;;;;6.30;0.85;;;;;;;;;;5051864;28;20044;-67
2023/10/16 06:16:18;;;;;;;3.53;0.60;;;;;;;;;;5067770;28;20123;-66
2023/10/16 06:18:46;;;;;;;2.78;0.43;;;;;;;;;;5071585;28;20044;-69
2023/10/16 06:21:14;;;;;;;5.97;0.90;;;;;;;;;;5068088;28;20064;-69
2023/10/16 06:23:43;;;;;;;5.65;0.68;;;;;;;;;;5069949;28;20052;-66
2023/10/16 06:26:10;;;;;;;13.35;0.80;;;;;;;;;;5072371;28;20056;-66
2023/10/16 06:28:47;;;;;;;4.55;0.52;;;;;;;;;;5069424;28;20049;-66
2023/10/16 06:31:15;;;;;;;3.28;0.60;;;;;;;;;;5071226;28;20048;-66
2023/10/16 06:33:42;;;;;;;6.00;0.85;;;;;;;;;;5069882;28;20056;-67
2023/10/16 06:36:12;;;;;;;3.70;0.82;;;;;;;;;;5071219;28;20049;-66
2023/10/16 06:38:40;;;;;;;13.23;0.75;;;;;;;;;;5071118;28;20070;-67
2023/10/16 06:41:07;;;;;;;5.10;0.47;;;;;;;;;;5071669;28;20076;-67
2023/10/16 06:43:35;;;;;;;11.18;0.70;;;;;;;;;;5069573;28;20045;-66
2023/10/16 06:46:09;;;;;;;3.10;1.10;;;;;;;;;;5070761;28;20050;-66
2023/10/16 06:48:38;;;;;;;1.85;0.57;;;;;;;;;;5068773;28;20091;-68
2023/10/16 06:51:14;;;;;;;9.45;0.77;;;;;;;;;;5070656;28;20041;-66
2023/10/16 06:53:41;;;;;;;5.03;0.70;;;;;;;;;;5069555;28;20053;-66
2023/10/16 06:56:09;;;;;;;4.95;0.50;;;;;;;;;;5064187;28;20102;-66
2023/10/16 06:58:36;;;;;;;5.25;0.60;;;;;;;;;;5069172;28;20048;-67
2023/10/16 07:01:06;;;;;;;2.30;0.32;;;;;;;;;;5068718;28;20056;-67
2023/10/16 07:03:34;;;;;;;8.25;0.70;;;;;;;;;;5067082;28;20063;-66
2023/10/16 07:06:01;;;;;;;5.85;0.60;;;;;;;;;;5065365;28;20110;-66
2023/10/16 07:08:28;;;;;;;7.50;0.60;;;;;;;;;;5069156;28;20077;-67
2023/10/16 07:10:56;;;;;;;2.60;0.60;;;;;;;;;;5066771;28;20045;-67
2023/10/16 07:13:27;;;;;;;2.40;0.57;;;;;;;;;;5068726;28;20041;-65
2023/10/16 07:15:57;;;;;;;5.35;0.50;;;;;;;;;;5068323;28;20056;-65
2023/10/16 07:18:26;;;;;;;2.05;0.60;;;;;;;;;;5070265;28;20048;-66
2023/10/16 07:20:55;;;;;;;4.35;0.50;;;;;;;;;;5067706;28;20060;-67
2023/10/16 07:23:24;;;;;;;1.75;0.43;;;;;;;;;;5070020;28;20074;-66
2023/10/16 07:25:56;;;;;;;9.40;0.52;;;;;;;;;;5065514;28;20060;-66
2023/10/16 07:28:23;;;;;;;2.17;0.40;;;;;;;;;;5067360;28;20098;-68
2023/10/16 07:30:51;;;;;;;3.78;0.47;;;;;;;;;;5067955;28;20049;-66
2023/10/16 07:33:20;;;;;;;4.40;0.50;;;;;;;;;;5070106;28;20041;-67
2023/10/16 07:35:50;;;;;;;10.43;0.93;;;;;;;;;;5067853;28;20059;-66
2023/10/16 07:38:19;;;;;;;3.75;0.57;;;;;;;;;;5068213;28;20053;-66
2023/10/16 07:40:46;;;;;;;2.88;0.40;;;;;;;;;;5070430;28;20047;-66
2023/10/16 07:43:14;;;;;;;2.85;0.30;;;;;;;;;;5064216;28;20056;-67
2023/10/16 07:45:44;;;;;;;7.15;0.52;;;;;;;;;;5068037;28;20048;-66
2023/10/16 07:48:20;;;;;;;3.17;0.85;;;;;;;;;;5070785;28;20051;-66
2023/10/16 07:50:50;;;;;;;9.88;0.50;;;;;;;;;;5066424;28;20133;-66
2023/10/16 07:53:18;;;;;;;2.05;0.38;;;;;;;;;;5067601;28;20295;-66
2023/10/16 07:55:51;;;;;;;5.35;0.70;;;;;;;;;;5069417;28;20491;-66
2023/10/16 07:58:23;;;;;;;2.30;0.30;;;;;;;;;;5069059;28;20055;-67
2023/10/16 08:01:17;;;;;;;2.22;0.50;;;;;;;;;;5060797;28;20040;-68
2023/10/16 08:03:46;;;;;;;;;;;;;;;;;;5065626;28;20094;-67
2023/10/16 08:06:23;;;;;;;3.88;0.50;;;;;;;;;;5068742;28;19978;-68
2023/10/16 08:09:29;;;;;;;9.07;1.92;;;;;;;;;;5063929;28;20049;-66
2023/10/16 08:11:42;;;;;;;3.25;0.45;;;;;;;;;;5069615;28;20083;-68
2023/10/16 08:14:09;;;;;;;2.15;0.60;;;;;;;;;;5069278;28;20068;-67
2023/10/16 08:16:38;;;;;;;3.15;0.40;;;;;;;;;;5068506;28;20044;-67
2023/10/16 08:19:14;;;;;;;3.33;0.68;;;;;;;;;;5068811;28;20049;-66
2023/10/16 08:21:44;;;;;;;8.00;0.77;;;;;;;;;;5068874;28;20044;-67
2023/10/16 08:24:13;;;;;;;3.53;0.50;;;;;;;;;;5067359;28;20037;-66
2023/10/16 08:26:43;;;;;;;5.63;0.52;;;;;;;;;;5068490;28;20052;-67
2023/10/16 08:29:18;;;;;;;4.57;0.70;;;;;;;;;;5066371;28;20143;-66
2023/10/16 08:31:47;;;;;;;6.97;0.75;;;;;;;;;;5066398;28;20479;-67
2023/10/16 08:34:19;;;;;;;2.70;0.43;;;;;;;;;;5068195;28;20450;-67
2023/10/16 08:36:51;;;;;;;3.67;0.50;;;;;;;;;;5069475;28;20048;-67
2023/10/16 08:39:19;;;;;;;3.45;0.38;;;;;;;;;;5065832;28;20048;-67
2023/10/16 08:41:52;;;;;;;3.30;0.70;;;;;;;;;;5065855;28;20052;-66
2023/10/16 08:44:21;;;;;;;7.25;0.82;;;;;;;;;;5065748;28;20052;-67
2023/10/16 08:49:37;;;;;;;5.25;0.52;;;;;;;;;;5063810;28;20436;-66
2023/10/16 08:52:08;;;;;;;4.30;0.60;;;;;;;;;;5060226;28;20076;-67
2023/10/16 08:55:00;;;;;;;7.03;0.82;;;;;;;;;;5067231;28;20138;-67
2023/10/16 08:57:28;;;;;;;3.30;0.82;;;;;;;;;;5067024;28;20049;-67
2023/10/16 08:59:58;;;;;;;3.88;0.47;;;;;;;;;;5067260;28;20051;-67
2023/10/16 09:02:26;;;;;;;3.22;0.35;;;;;;;;;;5061097;28;20041;-66
2023/10/16 09:04:54;;;;;;;9.05;0.95;;;;;;;;;;5065132;28;20055;-67
2023/10/16 09:07:24;;;;;;;3.50;0.45;;;;;;;;;;5063613;28;20480;-66
2023/10/16 09:09:55;;;;;;;2.95;0.50;;;;;;;;;;5067995;28;20415;-66
2023/10/16 09:12:26;;;;;;;2.70;0.40;;;;;;;;;;5067228;28;20110;-66
2023/10/16 09:14:54;;;;;;;3.88;0.40;;;;;;;;;;5069434;28;20052;-66
2023/10/16 09:17:21;;;;;;;2.67;0.40;;;;;;;;;;5062667;28;20052;-66
2023/10/16 09:19:49;;;;;;;6.15;0.63;;;;;;;;;;5067598;28;20070;-66
2023/10/16 09:22:18;;;;;;;6.30;0.70;;;;;;;;;;5068030;28;20461;-66
2023/10/16 09:24:51;;;;;;;3.28;0.50;;;;;;;;;;5069524;28;20497;-67
2023/10/16 09:27:22;;;;;;;3.25;0.63;;;;;;;;;;5068013;28;20059;-66
2023/10/16 09:29:54;;;;;;;3.88;0.73;;;;;;;;;;5067350;28;20051;-66
2023/10/16 09:32:26;;;;;;;3.85;1.27;;;;;;;;;;5066945;28;21207;-66
2023/10/16 09:34:54;;;;;;;9.35;1.13;;;;;;;;;;5063799;28;20052;-66
2023/10/16 09:37:24;;;;;;;3.95;0.70;;;;;;;;;;5066392;28;20472;-66
2023/10/16 09:39:56;;;;;;;3.28;0.70;;;;;;;;;;5065160;28;20120;-66
2023/10/16 09:42:25;;;;;;;2.72;0.68;;;;;;;;;;5067845;28;20114;-67
2023/10/16 09:45:09;;;;;;;1.90;0.60;;;;;;;;;;5067883;28;20117;-66
2023/10/16 09:47:38;;;;;;;;;;;;;;;;;;5068040;28;20058;-66
2023/10/16 09:50:16;;;;;;;10.00;0.60;;;;;;;;;;5067309;28;20003;-67
2023/10/16 09:52:45;;;;;;;5.28;0.80;;;;;;;;;;5058580;28;20052;-67
2023/10/16 09:55:14;;;;;;;4.47;0.52;;;;;;;;;;5068436;28;20488;-67
2023/10/16 09:57:46;;;;;;;2.33;0.70;;;;;;;;;;5068868;28;20064;-66
2023/10/16 10:00:28;;;;;;;1.73;0.50;;;;;;;;;;5068245;28;20063;-67
2023/10/16 10:02:57;;;;;;;4.18;1.48;;;;;;;;;;5066490;28;20052;-66
2023/10/16 10:05:34;;;;;;;6.95;0.70;;;;;;;;;;5067205;28;20056;-66
2023/10/16 10:08:15;;;;;;;4.65;0.50;;;;;;;;;;5064667;28;20471;-67
2023/10/16 10:13:34;;;;;;;5.60;0.80;;;;;;;;;;5059540;28;20079;-67
2023/10/16 10:16:06;;;;;;;5.80;0.80;;;;;;;;;;5067800;28;20048;-68
2023/10/16 10:18:42;;;;;;;3.47;0.43;;;;;;;;;;5066374;28;20150;-66
2023/10/16 10:21:18;;;;;;;4.45;0.75;;;;;;;;;;5067415;28;20102;-67
2023/10/16 10:23:45;;;;;;;5.35;0.45;;;;;;;;;;5062178;28;20107;-66
2023/10/16 10:26:18;;;;;;;2.50;0.73;;;;;;;;;;5066354;28;20053;-67
2023/10/16 10:28:48;;;;;;;7.65;0.73;;;;;;;;;;5066801;28;20044;-66
2023/10/16 10:31:15;;;;;;;3.13;0.50;;;;;;;;;;5068850;28;20125;-67
2023/10/16 10:33:51;;;;;;;2.70;0.60;;;;;;;;;;5068244;28;20053;-66
2023/10/16 10:36:32;;;;;;;4.03;0.45;;;;;;;;;;5065816;28;20072;-66
2023/10/16 10:39:20;;;;;;;1.20;0.40;;;;;;;;;;5065101;28;20053;-67
2023/10/16 10:41:50;;;;;;;3.20;0.60;;;;;;;;;;5067354;28;20523;-66
2023/10/16 10:44:19;;;;;;;5.40;0.70;;;;;;;;;;5068245;28;20060;-66
2023/10/16 10:46:49;;;;;;;5.82;0.82;;;;;;;;;;5067577;28;20078;-66
2023/10/16 10:49:17;;;;;;;2.47;0.93;;;;;;;;;;5058713;28;20095;-67
2023/10/16 10:51:45;;;;;;;4.82;1.38;;;;;;;;;;5064061;28;20053;-67
2023/10/16 10:54:13;;;;;;;1.70;0.40;;;;;;;;;;5066908;28;20055;-68
2023/10/16 10:56:41;;;;;;;1.50;0.60;;;;;;;;;;5064808;28;20133;-67
2023/10/16 10:59:10;;;;;;;3.47;0.88;;;;;;;;;;5069590;28;20445;-66
2023/10/16 11:01:50;;;;;;;6.25;0.65;;;;;;;;;;5067550;28;20567;-66
2023/10/16 11:04:17;;;;;;;5.90;0.65;;;;;;;;;;5069967;28;20052;-66
2023/10/16 11:06:51;;;;;;;2.70;0.47;;;;;;;;;;5065176;28;20049;-67
2023/10/16 11:09:20;;;;;;;1.30;0.20;;;;;;;;;;5066124;28;20110;-66
2023/10/16 11:11:50;;;;;;;2.30;0.50;;;;;;;;;;5063112;28;20048;-66
2023/10/16 11:14:33;;;;;;;4.90;0.60;;;;;;;;;;5067742;28;20048;-67
2023/10/16 11:17:01;;;;;;;4.57;0.38;;;;;;;;;;5069005;28;20514;-67
2023/10/16 11:19:44;;;;;;;2.85;0.30;;;;;;;;;;5064840;28;20102;-69
2023/10/16 11:22:18;;;;;;;3.22;0.32;;;;;;;;;;5066388;28;20052;-67
2023/10/16 11:24:45;;;;;;;;;;;;;;;;;;5071900;28;20055;-66
2023/10/16 11:27:13;;;;;;;4.20;0.43;;;;;;;;;;5070154;28;19929;-66
2023/10/16 11:29:42;;;;;;;4.63;0.32;;;;;;;;;;5063793;28;20066;-66
2023/10/16 11:32:14;;;;;;;5.18;0.57;;;;;;;;;;5070564;28;20055;-66
2023/10/16 11:34:42;;;;;;;4.10;0.40;;;;;;;;;;5069152;28;20050;-67
2023/10/16 11:37:12;;;;;;;2.80;0.43;;;;;;;;;;5066244;28;20052;-66
2023/10/16 11:39:39;;;;;;;2.30;0.55;;;;;;;;;;5067648;28;20053;-66
2023/10/16 11:42:08;;;;;;;3.25;0.50;;;;;;;;;;5066589;28;20041;-66
2023/10/16 11:44:37;;;;;;;2.45;0.55;;;;;;;;;;5065854;28;20442;-67
2023/10/16 11:47:08;;;;;;;4.45;0.63;;;;;;;;;;5066122;28;20102;-67
2023/10/16 11:49:37;;;;;;;1.75;0.52;;;;;;;;;;5067964;28;20076;-67
2023/10/16 11:52:20;;;;;;;2.60;0.88;;;;;;;;;;5066899;28;20064;-67
2023/10/16 11:54:48;;;;;;;1.83;0.50;;;;;;;;;;5065012;28;20055;-66
2023/10/16 11:57:16;;;;;;;1.73;0.47;;;;;;;;;;5068569;28;20041;-67
2023/10/16 11:59:44;;;;;;;2.40;0.40;;;;;;;;;;5068212;28;20049;-67
2023/10/16 12:02:12;;;;;;;3.88;0.50;;;;;;;;;;5068283;28;20059;-67
2023/10/16 12:04:41;;;;;;;2.33;0.43;;;;;;;;;;5066511;28;20049;-66
2023/10/16 12:07:08;;;;;;;3.17;0.50;;;;;;;;;;5064831;28;20080;-66
2023/10/16 12:09:42;;;;;;;6.72;0.60;;;;;;;;;;5067776;28;20044;-67
2023/10/16 12:12:16;;;;;;;;;;;;;;;;;;5066419;28;20041;-66
2023/10/16 12:14:43;;;;;;;4.50;0.60;;;;;;;;;;5070075;28;20588;-66
2023/10/16 12:17:13;;;;;;;3.58;0.50;;;;;;;;;;5068584;28;20048;-66
2023/10/16 12:19:41;;;;;;;3.35;0.50;;;;;;;;;;5064356;28;20178;-66
2023/10/16 12:22:09;;;;;;;2.63;0.40;;;;;;;;;;5068750;28;20056;-66
2023/10/16 12:24:36;;;;;;;2.28;0.60;;;;;;;;;;5069852;28;20093;-67
2023/10/16 12:27:04;;;;;;;3.10;0.65;;;;;;;;;;5067903;28;20742;-66
2023/10/16 12:29:31;;;;;;;4.10;0.75;;;;;;;;;;5069065;28;20041;-67
2023/10/16 12:32:02;;;;;;;6.28;0.90;;;;;;;;;;5071286;28;20134;-66
2023/10/16 12:34:32;;;;;;;3.60;0.50;;;;;;;;;;5069005;28;20103;-65
2023/10/16 12:37:06;;;;;;;4.07;0.60;;;;;;;;;;5068643;28;20049;-66
2023/10/16 12:39:35;;;;;;;4.82;0.47;;;;;;;;;;5068312;28;20084;-66
2023/10/16 12:42:06;;;;;;;2.20;0.57;;;;;;;;;;5058052;28;20048;-66
2023/10/16 12:44:34;;;;;;;2.47;0.30;;;;;;;;;;5069045;28;20131;-66
2023/10/16 12:47:01;;;;;;;4.13;0.70;;;;;;;;;;5063445;28;20045;-66
2023/10/16 12:49:28;;;;;;;3.88;0.40;;;;;;;;;;5066906;28;20059;-66
2023/10/16 12:51:55;;;;;;;5.13;0.88;;;;;;;;;;5065262;28;20483;-67
2023/10/16 12:54:25;;;;;;;4.53;0.98;;;;;;;;;;5064677;28;20056;-67
2023/10/16 12:56:53;;;;;;;2.63;0.60;;;;;;;;;;5069089;28;20052;-66
2023/10/16 12:59:21;;;;;;;6.68;1.27;;;;;;;;;;5065636;28;20079;-67
2023/10/16 13:01:49;;;;;;;4.70;1.50;;;;;;;;;;5068167;28;20064;-67
2023/10/16 13:04:17;;;;;;;3.88;0.68;;;;;;;;;;5068539;28;20051;-65
2023/10/16 13:06:44;;;;;;;9.48;0.82;;;;;;;;;;5063988;28;20048;-68
2023/10/16 13:09:16;;;;;;;7.32;0.90;;;;;;;;;;5059958;28;20061;-66
2023/10/16 13:11:45;;;;;;;3.42;0.50;;;;;;;;;;5066973;28;20106;-66
2023/10/16 13:14:12;;;;;;;4.00;0.80;;;;;;;;;;5066851;28;20101;-66
2023/10/16 13:16:41;;;;;;;1.85;0.38;;;;;;;;;;5070020;28;20453;-66
2023/10/16 13:19:09;;;;;;;3.03;0.60;;;;;;;;;;5064641;28;20045;-72
2023/10/16 13:21:41;;;;;;;5.18;0.63;;;;;;;;;;5063570;28;20495;-71
2023/10/16 13:24:11;;;;;;;3.47;0.65;;;;;;;;;;5068741;28;20075;-72
2023/10/16 13:26:38;;;;;;;7.85;0.60;;;;;;;;;;5067513;28;20094;-72
2023/10/16 13:29:07;;;;;;;2.05;0.40;;;;;;;;;;5063465;28;20045;-71
2023/10/16 13:31:35;;;;;;;3.97;0.73;;;;;;;;;;5067559;28;20054;-70
2023/10/16 13:34:03;;;;;;;4.43;0.63;;;;;;;;;;5068312;28;20078;-72
2023/10/16 13:36:31;;;;;;;2.22;0.40;;;;;;;;;;5066479;28;20040;-69
2023/10/16 13:38:58;;;;;;;4.82;0.50;;;;;;;;;;5062398;28;20492;-71
2023/10/16 13:41:28;;;;;;;4.90;0.65;;;;;;;;;;5068986;28;20055;-71
2023/10/16 13:43:55;;;;;;;3.10;0.50;;;;;;;;;;5067479;28;20052;-72
2023/10/16 13:46:26;;;;;;;2.17;0.60;;;;;;;;;;5068351;28;20051;-71
2023/10/16 13:48:53;;;;;;;9.30;0.73;;;;;;;;;;5068326;28;20135;-70
2023/10/16 13:51:20;;;;;;;4.30;1.10;;;;;;;;;;5065871;28;20048;-72
2023/10/16 13:53:48;;;;;;;9.05;2.55;;;;;;;;;;5067334;28;20048;-72
2023/10/16 13:56:18;;;;;;;5.25;1.17;;;;;;;;;;5065138;28;20045;-70
2023/10/16 13:58:46;;;;;;;7.15;0.63;;;;;;;;;;5067213;28;20322;-71
2023/10/16 14:01:14;;;;;;;3.92;0.60;;;;;;;;;;5065894;28;20499;-70
2023/10/16 14:03:44;;;;;;;3.88;0.68;;;;;;;;;;5066565;28;20091;-71
2023/10/16 14:06:22;;;;;;;2.70;0.50;;;;;;;;;;5066690;28;20052;-72
2023/10/16 14:08:49;;;;;;;4.38;0.80;;;;;;;;;;5066315;28;20048;-72
2023/10/16 14:11:17;;;;;;;4.53;0.50;;;;;;;;;;5061744;28;20037;-71
2023/10/16 14:13:45;;;;;;;3.78;0.68;;;;;;;;;;5067366;28;20540;-71
2023/10/16 14:16:17;;;;;;;3.58;0.80;;;;;;;;;;5062213;28;20045;-71
2023/10/16 14:18:46;;;;;;;1.80;0.45;;;;;;;;;;5062828;28;20041;-71
2023/10/16 14:21:16;;;;;;;3.20;0.50;;;;;;;;;;5068142;28;20052;-71
2023/10/16 14:23:44;;;;;;;4.78;1.00;;;;;;;;;;5067496;28;20400;-72
2023/10/16 14:26:14;;;;;;;2.00;0.50;;;;;;;;;;5066365;28;20377;-71
2023/10/16 14:28:44;;;;;;;2.38;0.60;;;;;;;;;;5064747;28;20041;-72
2023/10/16 14:31:14;;;;;;;5.40;0.82;;;;;;;;;;5067781;28;20467;-72
2023/10/16 14:33:41;;;;;;;1.15;0.43;;;;;;;;;;5066211;28;20044;-71
2023/10/16 14:36:10;;;;;;;3.25;0.55;;;;;;;;;;5064951;28;20060;-71
2023/10/16 14:38:38;;;;;;;2.17;0.57;;;;;;;;;;5070221;28;20136;-71
2023/10/16 14:41:08;;;;;;;3.30;0.30;;;;;;;;;;5073105;28;20059;-71
2023/10/16 14:43:37;;;;;;;2.58;0.40;;;;;;;;;;5071625;28;20048;-68
2023/10/16 14:46:07;;;;;;;4.32;0.70;;;;;;;;;;5070847;28;20056;-72
2023/10/16 14:48:36;;;;;;;6.90;0.75;;;;;;;;;;5071163;28;20080;-70
2023/10/16 14:51:04;;;;;;;4.60;0.60;;;;;;;;;;5072636;28;20068;-71
2023/10/16 14:53:33;;;;;;;1.98;0.52;;;;;;;;;;5071008;28;20553;-71
2023/10/16 14:56:00;;;;;;;4.72;0.60;;;;;;;;;;5070905;28;20468;-72
2023/10/16 14:58:28;;;;;;;4.38;0.57;;;;;;;;;;5069324;28;20053;-71
2023/10/16 15:00:56;;;;;;;1.27;0.45;;;;;;;;;;5071720;28;20131;-71
2023/10/16 15:03:23;;;;;;;1.70;0.60;;;;;;;;;;5069650;28;20045;-71
2023/10/16 15:05:51;;;;;;;2.05;0.50;;;;;;;;;;5067428;28;20041;-72
2023/10/16 15:08:19;;;;;;;2.05;0.57;;;;;;;;;;5062628;28;20036;-71
2023/10/16 15:10:50;;;;;;;4.85;0.90;;;;;;;;;;5069894;28;20036;-71
2023/10/16 15:13:18;;;;;;;7.25;0.77;;;;;;;;;;5064302;28;20052;-72
2023/10/16 15:15:46;;;;;;;4.53;0.70;;;;;;;;;;5071160;28;20129;-71
2023/10/16 15:18:14;;;;;;;2.35;0.63;;;;;;;;;;5071085;28;20055;-68
2023/10/16 15:20:42;;;;;;;2.95;0.47;;;;;;;;;;5070255;28;20467;-71
2023/10/16 15:23:11;;;;;;;1.33;0.40;;;;;;;;;;5069941;28;20056;-72
2023/10/16 15:25:38;;;;;;;3.97;0.50;;;;;;;;;;5070439;28;20052;-71
2023/10/16 15:28:08;;;;;;;2.55;0.45;;;;;;;;;;5071313;28;20040;-71
2023/10/16 15:30:36;;;;;;;3.45;0.50;;;;;;;;;;5071348;28;20040;-72
2023/10/16 15:33:06;;;;;;;2.58;0.50;;;;;;;;;;5071861;28;20052;-72
2023/10/16 15:35:33;;;;;;;2.15;0.60;;;;;;;;;;5063571;28;20080;-71
2023/10/16 15:38:01;;;;;;;3.90;0.50;;;;;;;;;;5070947;28;20420;-72
2023/10/16 15:40:29;;;;;;;4.78;0.77;;;;;;;;;;5069139;28;20509;-72
2023/10/16 15:42:59;;;;;;;2.90;0.70;;;;;;;;;;5071890;28;20053;-71
2023/10/16 15:45:34;;;;;;;2.47;0.70;;;;;;;;;;5065899;28;20045;-71
2023/10/16 15:48:02;;;;;;;1.45;0.50;;;;;;;;;;5069168;28;20059;-72
2023/10/16 15:50:31;;;;;;;4.63;0.80;;;;;;;;;;5067657;28;20044;-71
2023/10/16 15:52:58;;;;;;;0.93;0.50;;;;;;;;;;5067206;28;20488;-71
2023/10/16 15:55:26;;;;;;;2.45;0.60;;;;;;;;;;5061709;28;20062;-70
2023/10/16 15:57:53;;;;;;;3.35;0.30;;;;;;;;;;5061866;28;20408;-68
2023/10/16 16:00:25;;;;;;;3.08;0.50;;;;;;;;;;5059988;28;20053;-70
2023/10/16 16:02:55;;;;;;;1.07;0.40;;;;;;;;;;5066568;28;20120;-71
2023/10/16 16:05:22;;;;;;;1.33;0.40;;;;;;;;;;5070752;28;20071;-71
2023/10/16 16:07:50;;;;;;;1.95;0.38;;;;;;;;;;5065595;28;20056;-71
2023/10/16 16:10:18;;;;;;;1.67;0.47;;;;;;;;;;5060940;28;20048;-70
2023/10/16 16:12:45;;;;;;;1.77;0.45;;;;;;;;;;5061399;28;20072;-70
2023/10/16 16:15:16;;;;;;;1.27;0.40;;;;;;;;;;5069087;28;20044;-71
2023/10/16 16:17:45;;;;;;;4.00;0.68;;;;;;;;;;5067521;28;20044;-71
2023/10/16 16:20:16;;;;;;;2.28;0.65;;;;;;;;;;5053589;28;20053;-71
2023/10/16 16:22:45;;;;;;;3.05;0.77;;;;;;;;;;5065512;28;20041;-70
2023/10/16 16:25:13;;;;;;;6.78;2.13;;;;;;;;;;5058351;28;20147;-71